createdAt,value
2018-04-30T00:00:06.410Z,15.42
2018-04-30T00:02:34.701Z,15.35
2018-04-30T00:05:06.846Z,15.39
2018-04-30T00:07:35.098Z,15.48
2018-04-30T00:10:06.610Z,15.39
2018-04-30T00:12:34.865Z,15.15
2018-04-30T00:15:06.056Z,14.98
2018-04-30T00:17:34.602Z,15.02
2018-04-30T00:20:06.697Z,14.96
2018-04-30T00:22:34.974Z,15.03
2018-04-30T00:25:05.811Z,15.02
2018-04-30T00:27:34.079Z,15.03
2018-04-30T00:30:06.103Z,14.89
2018-04-30T00:32:34.608Z,15.00
2018-04-30T00:35:06.553Z,15.06
2018-04-30T00:37:34.830Z,15.03
2018-04-30T00:40:06.751Z,14.86
2018-04-30T00:42:35.044Z,14.82
2018-04-30T00:45:05.783Z,14.96
2018-04-30T00:47:34.067Z,15.11
2018-04-30T00:50:08.191Z,15.04
2018-04-30T00:52:36.479Z,15.12
2018-04-30T00:55:06.088Z,15.26
2018-04-30T00:57:34.379Z,15.03
2018-04-30T01:00:05.737Z,14.87
2018-04-30T01:02:34.066Z,14.79
2018-04-30T01:05:05.303Z,14.88
2018-04-30T01:07:33.609Z,14.82
2018-04-30T01:10:08.370Z,14.81
2018-04-30T01:12:36.676Z,14.95
2018-04-30T01:15:06.871Z,14.88
2018-04-30T01:17:35.171Z,14.93
2018-04-30T01:20:06.907Z,14.96
2018-04-30T01:22:35.204Z,15.08
2018-04-30T01:25:06.072Z,15.06
2018-04-30T01:27:34.373Z,14.95
2018-04-30T01:30:05.770Z,15.01
2018-04-30T01:32:34.098Z,15.18
2018-04-30T01:35:09.097Z,15.10
2018-04-30T01:37:37.614Z,14.91
2018-04-30T01:40:05.975Z,14.91
2018-04-30T01:42:34.255Z,14.90
2018-04-30T01:45:05.889Z,14.75
2018-04-30T01:47:34.174Z,14.61
2018-04-30T01:50:06.735Z,14.48
2018-04-30T01:52:34.999Z,14.61
2018-04-30T01:55:06.311Z,14.65
2018-04-30T01:57:34.582Z,14.59
2018-04-30T02:00:06.741Z,14.80
2018-04-30T02:02:35.004Z,14.66
2018-04-30T02:05:06.534Z,14.96
2018-04-30T02:07:34.992Z,14.50
2018-04-30T02:10:06.807Z,14.46
2018-04-30T02:12:35.371Z,14.68
2018-04-30T02:15:07.753Z,14.48
2018-04-30T02:17:36.082Z,14.71
2018-04-30T02:20:06.354Z,14.82
2018-04-30T02:22:34.632Z,14.75
2018-04-30T02:25:06.733Z,14.62
2018-04-30T02:27:35.023Z,14.70
2018-04-30T02:30:06.907Z,14.51
2018-04-30T02:32:35.218Z,14.37
2018-04-30T02:35:07.303Z,14.33
2018-04-30T02:37:35.587Z,14.37
2018-04-30T02:40:07.887Z,14.32
2018-04-30T02:42:36.203Z,14.30
2018-04-30T02:45:06.038Z,14.33
2018-04-30T02:47:34.331Z,14.39
2018-04-30T02:50:08.189Z,14.34
2018-04-30T02:52:36.516Z,14.28
2018-04-30T02:55:06.359Z,14.20
2018-04-30T02:57:34.655Z,14.22
2018-04-30T03:00:06.835Z,14.20
2018-04-30T03:02:35.148Z,14.16
2018-04-30T03:05:06.458Z,14.19
2018-04-30T03:07:34.741Z,14.18
2018-04-30T03:10:06.883Z,14.23
2018-04-30T03:12:35.178Z,14.25
2018-04-30T03:15:07.343Z,14.36
2018-04-30T03:17:35.630Z,14.51
2018-04-30T03:20:06.911Z,14.63
2018-04-30T03:22:35.172Z,14.65
2018-04-30T03:25:07.379Z,14.68
2018-04-30T03:27:35.631Z,14.56
2018-04-30T03:30:07.552Z,14.48
2018-04-30T03:32:35.807Z,14.46
2018-04-30T03:35:07.336Z,14.40
2018-04-30T03:37:35.826Z,14.42
2018-04-30T03:40:07.824Z,14.39
2018-04-30T03:42:36.154Z,14.38
2018-04-30T03:45:06.568Z,14.35
2018-04-30T03:47:34.880Z,14.30
2018-04-30T03:50:06.488Z,14.28
2018-04-30T03:52:34.740Z,14.32
2018-04-30T03:55:06.141Z,14.28
2018-04-30T03:57:34.630Z,14.34
2018-04-30T04:00:06.316Z,14.23
2018-04-30T04:02:46.305Z,14.20
2018-04-30T04:08:14.404Z,14.19
2018-04-30T04:10:42.695Z,14.13
2018-04-30T04:13:10.951Z,14.13
2018-04-30T04:15:39.223Z,14.13
2018-04-30T04:18:07.574Z,14.14
2018-04-30T04:20:36.119Z,14.15
2018-04-30T04:23:04.587Z,14.14
2018-04-30T04:25:32.853Z,14.16
2018-04-30T04:28:01.135Z,14.14
2018-04-30T04:30:29.395Z,14.13
2018-04-30T04:32:57.684Z,14.04
2018-04-30T04:35:25.943Z,14.03
2018-04-30T04:37:54.231Z,14.01
2018-04-30T04:40:23.325Z,14.00
2018-04-30T04:42:51.591Z,14.03
2018-04-30T04:45:20.094Z,14.11
2018-04-30T04:47:48.371Z,14.14
2018-04-30T04:50:17.423Z,14.12
2018-04-30T04:52:45.723Z,14.13
2018-04-30T04:55:18.319Z,14.13
2018-04-30T04:57:46.599Z,14.22
2018-04-30T05:00:14.871Z,14.26
2018-04-30T05:02:43.131Z,14.38
2018-04-30T05:05:11.666Z,14.35
2018-04-30T05:07:39.887Z,14.29
2018-04-30T05:10:08.383Z,14.17
2018-04-30T05:12:36.679Z,14.18
2018-04-30T05:15:06.578Z,14.12
2018-04-30T05:17:35.036Z,14.11
2018-04-30T05:20:09.043Z,14.10
2018-04-30T05:22:37.509Z,14.06
2018-04-30T05:25:06.604Z,13.93
2018-04-30T05:27:34.927Z,13.92
2018-04-30T05:30:06.240Z,13.79
2018-04-30T05:32:34.766Z,13.81
2018-04-30T05:35:06.284Z,13.94
2018-04-30T05:37:34.788Z,14.07
2018-04-30T05:40:09.815Z,14.08
2018-04-30T05:42:38.079Z,14.04
2018-04-30T05:45:06.486Z,13.96
2018-04-30T05:47:34.747Z,14.08
2018-04-30T05:50:07.924Z,14.07
2018-04-30T05:52:36.256Z,14.05
2018-04-30T05:55:08.394Z,13.86
2018-04-30T05:57:36.753Z,13.80
2018-04-30T06:00:06.770Z,13.80
2018-04-30T06:02:35.029Z,14.05
2018-04-30T06:05:06.596Z,13.86
2018-04-30T06:07:35.086Z,13.96
2018-04-30T06:10:06.587Z,13.88
2018-04-30T06:12:34.882Z,13.94
2018-04-30T06:15:07.583Z,13.94
2018-04-30T06:17:35.928Z,14.03
2018-04-30T06:20:05.947Z,13.86
2018-04-30T06:22:34.229Z,13.94
2018-04-30T06:25:05.623Z,14.03
2018-04-30T06:27:33.907Z,13.92
2018-04-30T06:30:06.025Z,14.07
2018-04-30T06:32:34.482Z,14.03
2018-04-30T06:35:06.591Z,14.13
2018-04-30T06:37:34.877Z,13.97
2018-04-30T06:40:07.023Z,13.86
2018-04-30T06:42:35.423Z,13.69
2018-04-30T06:45:07.412Z,13.66
2018-04-30T06:47:35.787Z,13.62
2018-04-30T06:50:05.496Z,13.56
2018-04-30T06:52:33.771Z,13.57
2018-04-30T06:55:07.249Z,13.55
2018-04-30T06:57:35.593Z,13.58
2018-04-30T07:00:05.743Z,13.45
2018-04-30T07:02:34.025Z,13.59
2018-04-30T07:05:05.471Z,13.58
2018-04-30T07:07:33.785Z,13.68
2018-04-30T07:10:05.019Z,13.59
2018-04-30T07:12:33.586Z,13.65
2018-04-30T07:15:06.200Z,13.66
2018-04-30T07:17:34.461Z,13.70
2018-04-30T07:20:06.424Z,13.95
2018-04-30T07:22:35.144Z,13.89
2018-04-30T07:25:07.255Z,13.89
2018-04-30T07:27:35.570Z,13.92
2018-04-30T07:30:06.972Z,13.81
2018-04-30T07:32:35.227Z,13.81
2018-04-30T07:35:06.514Z,14.07
2018-04-30T07:37:34.820Z,13.91
2018-04-30T07:40:06.279Z,13.77
2018-04-30T07:42:34.552Z,13.78
2018-04-30T07:45:05.685Z,13.87
2018-04-30T07:47:34.110Z,13.84
2018-04-30T07:50:05.452Z,13.76
2018-04-30T07:52:33.706Z,13.81
2018-04-30T07:55:08.814Z,13.84
2018-04-30T07:57:37.274Z,13.70
2018-04-30T08:00:06.698Z,13.66
2018-04-30T08:02:35.011Z,13.65
2018-04-30T08:05:06.884Z,13.80
2018-04-30T08:07:35.164Z,13.72
2018-04-30T08:10:07.451Z,13.77
2018-04-30T08:12:35.883Z,13.85
2018-04-30T08:15:05.837Z,13.84
2018-04-30T08:17:34.312Z,13.86
2018-04-30T08:20:08.418Z,14.09
2018-04-30T08:22:36.711Z,14.07
2018-04-30T08:25:06.300Z,13.97
2018-04-30T08:27:34.577Z,14.03
2018-04-30T08:30:06.846Z,14.29
2018-04-30T08:32:35.123Z,14.44
2018-04-30T08:35:06.826Z,14.14
2018-04-30T08:37:35.123Z,14.21
2018-04-30T08:40:08.108Z,14.09
2018-04-30T08:42:36.637Z,14.13
2018-04-30T08:45:06.475Z,14.01
2018-04-30T08:47:34.707Z,13.95
2018-04-30T08:50:06.680Z,14.06
2018-04-30T08:52:35.451Z,14.02
2018-04-30T08:55:08.178Z,14.06
2018-04-30T08:57:36.648Z,13.94
2018-04-30T09:00:06.733Z,13.97
2018-04-30T09:02:35.230Z,14.09
2018-04-30T09:05:07.291Z,14.07
2018-04-30T09:07:35.561Z,13.99
2018-04-30T09:10:07.659Z,13.98
2018-04-30T09:12:35.915Z,13.95
2018-04-30T09:15:05.943Z,13.94
2018-04-30T09:17:34.125Z,13.94
2018-04-30T09:20:08.048Z,13.99
2018-04-30T09:22:36.298Z,14.05
2018-04-30T09:25:06.115Z,14.16
2018-04-30T09:27:34.378Z,14.13
2018-04-30T09:30:09.270Z,14.14
2018-04-30T09:32:37.528Z,14.19
2018-04-30T09:35:06.279Z,14.14
2018-04-30T09:37:34.767Z,14.16
2018-04-30T09:40:06.108Z,14.20
2018-04-30T09:42:34.383Z,14.19
2018-04-30T09:45:09.427Z,14.17
2018-04-30T09:47:37.722Z,14.20
2018-04-30T09:50:06.259Z,14.25
2018-04-30T09:52:34.538Z,14.32
2018-04-30T09:55:06.133Z,14.48
2018-04-30T09:57:34.412Z,14.41
2018-04-30T10:00:05.933Z,14.44
2018-04-30T10:02:34.189Z,14.80
2018-04-30T10:05:05.686Z,14.63
2018-04-30T10:07:34.019Z,14.57
2018-04-30T10:10:05.776Z,14.77
2018-04-30T10:12:34.067Z,14.53
2018-04-30T10:15:05.903Z,14.53
2018-04-30T10:17:34.184Z,14.28
2018-04-30T10:20:05.740Z,14.21
2018-04-30T10:22:34.110Z,14.14
2018-04-30T10:25:05.464Z,14.09
2018-04-30T10:27:33.748Z,14.02
2018-04-30T10:30:08.421Z,14.07
2018-04-30T10:32:36.698Z,14.01
2018-04-30T10:35:07.989Z,14.03
2018-04-30T10:37:36.270Z,13.99
2018-04-30T10:40:07.593Z,13.93
2018-04-30T10:42:36.007Z,14.05
2018-04-30T10:45:08.031Z,14.00
2018-04-30T10:47:36.306Z,13.96
2018-04-30T10:50:06.351Z,14.03
2018-04-30T10:52:34.650Z,13.99
2018-04-30T10:55:06.751Z,14.04
2018-04-30T10:57:35.022Z,13.98
2018-04-30T11:00:06.244Z,14.05
2018-04-30T11:02:34.528Z,13.91
2018-04-30T11:05:05.952Z,14.09
2018-04-30T11:07:34.202Z,13.81
2018-04-30T11:10:09.347Z,13.85
2018-04-30T11:12:37.599Z,13.78
2018-04-30T11:15:06.917Z,13.96
2018-04-30T11:17:35.188Z,14.06
2018-04-30T11:20:07.208Z,14.00
2018-04-30T11:22:35.489Z,14.12
2018-04-30T11:25:06.179Z,14.43
2018-04-30T11:27:34.534Z,14.34
2018-04-30T11:30:06.328Z,14.55
2018-04-30T11:32:34.607Z,14.68
2018-04-30T11:35:05.979Z,14.76
2018-04-30T11:37:34.387Z,14.72
2018-04-30T11:40:06.281Z,14.93
2018-04-30T11:42:34.562Z,14.80
2018-04-30T11:45:06.123Z,14.82
2018-04-30T11:47:34.396Z,14.84
2018-04-30T11:50:05.884Z,14.50
2018-04-30T11:52:34.127Z,14.84
2018-04-30T11:55:05.960Z,14.52
2018-04-30T11:57:34.227Z,14.46
2018-04-30T12:00:06.128Z,14.61
2018-04-30T12:02:34.437Z,14.20
2018-04-30T12:05:09.826Z,14.12
2018-04-30T12:07:38.103Z,14.14
2018-04-30T12:10:06.408Z,14.18
2018-04-30T12:12:34.679Z,14.14
2018-04-30T12:15:06.102Z,14.20
2018-04-30T12:17:34.724Z,14.33
2018-04-30T12:20:06.753Z,14.23
2018-04-30T12:22:35.030Z,13.82
2018-04-30T12:25:07.168Z,13.28
2018-04-30T12:27:35.451Z,13.20
2018-04-30T12:30:07.444Z,13.06
2018-04-30T12:32:35.736Z,13.17
2018-04-30T12:35:06.444Z,13.20
2018-04-30T12:37:34.926Z,13.50
2018-04-30T12:40:06.339Z,13.59
2018-04-30T12:42:34.607Z,13.82
2018-04-30T12:45:06.588Z,14.07
2018-04-30T12:47:34.867Z,14.34
2018-04-30T12:50:07.064Z,14.63
2018-04-30T12:52:35.478Z,14.45
2018-04-30T12:55:07.479Z,14.44
2018-04-30T12:57:35.766Z,14.45
2018-04-30T13:00:06.856Z,14.38
2018-04-30T13:02:35.957Z,14.34
2018-04-30T13:05:07.673Z,14.78
2018-04-30T13:07:35.967Z,14.56
2018-04-30T13:10:07.913Z,14.94
2018-04-30T13:12:36.223Z,14.60
2018-04-30T13:15:07.451Z,14.43
2018-04-30T13:17:35.774Z,14.11
2018-04-30T13:20:07.667Z,13.87
2018-04-30T13:22:35.934Z,13.58
2018-04-30T13:25:07.963Z,13.33
2018-04-30T13:27:36.244Z,13.36
2018-04-30T13:30:07.449Z,13.56
2018-04-30T13:32:35.745Z,13.74
2018-04-30T13:35:07.134Z,13.67
2018-04-30T13:37:35.436Z,13.74
2018-04-30T13:40:06.467Z,13.69
2018-04-30T13:42:34.766Z,13.59
2018-04-30T13:45:06.250Z,13.32
2018-04-30T13:47:34.519Z,13.16
2018-04-30T13:50:06.476Z,12.56
2018-04-30T13:52:34.765Z,12.24
2018-04-30T13:55:06.198Z,12.04
2018-04-30T13:57:34.475Z,11.81
2018-04-30T14:00:05.654Z,11.61
2018-04-30T14:02:33.927Z,11.56
2018-04-30T14:05:05.647Z,11.46
2018-04-30T14:07:33.930Z,11.32
2018-04-30T14:10:05.814Z,11.27
2018-04-30T14:12:34.100Z,11.26
2018-04-30T14:15:06.673Z,11.25
2018-04-30T14:17:35.024Z,11.48
2018-04-30T14:20:07.095Z,11.33
2018-04-30T14:22:35.376Z,11.45
2018-04-30T14:25:07.423Z,11.53
2018-04-30T14:27:35.716Z,11.57
2018-04-30T14:30:05.571Z,11.60
2018-04-30T14:32:33.835Z,11.73
2018-04-30T14:35:07.784Z,11.87
2018-04-30T14:37:36.035Z,11.86
2018-04-30T14:40:06.121Z,11.95
2018-04-30T14:42:34.372Z,12.21
2018-04-30T14:45:06.414Z,12.07
2018-04-30T14:47:34.732Z,12.28
2018-04-30T14:50:06.218Z,12.22
2018-04-30T14:52:34.762Z,12.21
2018-04-30T14:55:06.904Z,12.34
2018-04-30T14:57:35.205Z,12.37
2018-04-30T15:00:06.444Z,12.44
2018-04-30T15:02:34.836Z,12.35
2018-04-30T15:05:05.622Z,12.37
2018-04-30T15:07:33.909Z,12.57
2018-04-30T15:10:05.289Z,12.35
2018-04-30T15:12:33.550Z,12.30
2018-04-30T15:15:06.433Z,12.42
2018-04-30T15:17:34.690Z,12.22
2018-04-30T15:20:06.396Z,12.32
2018-04-30T15:22:34.659Z,12.43
2018-04-30T15:25:07.971Z,12.37
2018-04-30T15:27:36.236Z,12.67
2018-04-30T15:30:06.350Z,12.70
2018-04-30T15:32:35.182Z,12.79
2018-04-30T15:35:06.495Z,12.85
2018-04-30T15:37:34.821Z,13.14
2018-04-30T15:40:06.916Z,13.12
2018-04-30T15:42:35.204Z,13.10
2018-04-30T15:45:06.432Z,13.27
2018-04-30T15:47:34.718Z,13.22
2018-04-30T15:50:05.715Z,13.36
2018-04-30T15:52:34.045Z,13.42
2018-04-30T15:55:05.995Z,13.41
2018-04-30T15:57:35.659Z,13.60
2018-04-30T16:00:07.082Z,13.54
2018-04-30T16:02:35.352Z,13.36
2018-04-30T16:05:07.238Z,13.49
2018-04-30T16:07:35.566Z,13.39
2018-04-30T16:10:07.581Z,13.46
2018-04-30T16:12:35.972Z,13.39
2018-04-30T16:15:07.573Z,13.48
2018-04-30T16:17:36.143Z,13.29
2018-04-30T16:20:06.127Z,13.41
2018-04-30T16:22:34.453Z,13.26
2018-04-30T16:25:05.878Z,13.28
2018-04-30T16:27:34.147Z,13.33
2018-04-30T16:30:06.115Z,13.27
2018-04-30T16:32:34.401Z,13.17
2018-04-30T16:35:05.648Z,13.19
2018-04-30T16:37:33.946Z,13.19
2018-04-30T16:40:06.396Z,13.20
2018-04-30T16:42:34.707Z,13.16
2018-04-30T16:45:06.317Z,13.14
2018-04-30T16:47:34.600Z,13.15
2018-04-30T16:50:06.419Z,13.13
2018-04-30T16:52:34.684Z,13.18
2018-04-30T16:55:06.055Z,13.22
2018-04-30T16:57:34.359Z,13.15
2018-04-30T17:00:05.895Z,13.05
2018-04-30T17:02:34.199Z,12.82
2018-04-30T17:05:05.571Z,12.78
2018-04-30T17:07:33.826Z,12.78
2018-04-30T17:10:08.695Z,12.87
2018-04-30T17:12:36.971Z,12.80
2018-04-30T17:15:07.048Z,12.88
2018-04-30T17:17:35.323Z,12.86
2018-04-30T17:20:06.337Z,12.86
2018-04-30T17:22:34.621Z,12.95
2018-04-30T17:25:09.518Z,12.78
2018-04-30T17:27:37.983Z,12.87
2018-04-30T17:30:06.284Z,12.84
2018-04-30T17:32:34.597Z,12.72
2018-04-30T17:35:06.163Z,12.50
2018-04-30T17:37:34.452Z,12.64
2018-04-30T17:40:06.683Z,12.56
2018-04-30T17:42:35.077Z,12.58
2018-04-30T17:45:07.083Z,12.44
2018-04-30T17:47:35.618Z,12.44
2018-04-30T17:50:07.397Z,12.39
2018-04-30T17:52:35.840Z,12.44
2018-04-30T17:55:07.820Z,12.45
2018-04-30T17:57:36.099Z,12.45
2018-04-30T18:00:07.360Z,12.56
2018-04-30T18:02:35.631Z,12.58
2018-04-30T18:05:07.627Z,12.57
2018-04-30T18:07:35.937Z,12.56
2018-04-30T18:10:07.235Z,12.56
2018-04-30T18:12:35.719Z,12.54
2018-04-30T18:15:08.047Z,12.45
2018-04-30T18:17:36.890Z,12.42
2018-04-30T18:20:06.355Z,12.42
2018-04-30T18:22:34.639Z,12.34
2018-04-30T18:25:09.661Z,12.48
2018-04-30T18:27:38.028Z,12.30
2018-04-30T18:30:06.805Z,12.33
2018-04-30T18:32:35.051Z,12.22
2018-04-30T18:35:07.054Z,12.07
2018-04-30T18:37:35.544Z,11.86
2018-04-30T18:40:06.503Z,11.77
2018-04-30T18:42:34.799Z,11.86
2018-04-30T18:45:09.963Z,11.78
2018-04-30T18:47:38.253Z,11.61
2018-04-30T18:50:06.587Z,11.61
2018-04-30T18:52:34.840Z,11.56
2018-04-30T18:55:09.990Z,11.56
2018-04-30T18:57:38.272Z,11.57
2018-04-30T19:00:06.564Z,11.50
2018-04-30T19:02:35.021Z,11.55
2018-04-30T19:05:07.016Z,11.58
2018-04-30T19:07:35.319Z,11.58
2018-04-30T19:10:07.344Z,11.54
2018-04-30T19:12:35.778Z,11.57
2018-04-30T19:15:07.972Z,11.46
2018-04-30T19:17:36.363Z,11.47
2018-04-30T19:20:08.186Z,11.37
2018-04-30T19:22:36.480Z,11.30
2018-04-30T19:25:06.399Z,11.45
2018-04-30T19:27:34.687Z,11.40
2018-04-30T19:30:06.323Z,11.25
2018-04-30T19:32:34.616Z,11.17
2018-04-30T19:35:06.114Z,11.25
2018-04-30T19:37:34.603Z,11.28
2018-04-30T19:40:05.807Z,11.13
2018-04-30T19:42:34.115Z,11.06
2018-04-30T19:45:08.774Z,11.07
2018-04-30T19:47:37.091Z,11.04
2018-04-30T19:50:07.077Z,11.09
2018-04-30T19:52:35.387Z,11.01
2018-04-30T19:55:06.601Z,10.95
2018-04-30T19:57:34.903Z,11.00
2018-04-30T20:00:07.053Z,10.87
2018-04-30T20:02:35.312Z,10.90
2018-04-30T20:05:07.705Z,10.74
2018-04-30T20:07:35.977Z,10.59
2018-04-30T20:10:06.042Z,10.53
2018-04-30T20:12:34.527Z,10.62
2018-04-30T20:15:06.454Z,10.48
2018-04-30T20:17:34.779Z,10.46
2018-04-30T20:20:06.176Z,10.45
2018-04-30T20:22:34.434Z,10.31
2018-04-30T20:25:05.741Z,10.24
2018-04-30T20:27:34.009Z,10.27
2018-04-30T20:30:05.883Z,10.25
2018-04-30T20:32:34.178Z,10.18
2018-04-30T20:35:05.976Z,10.10
2018-04-30T20:37:34.226Z,10.21
2018-04-30T20:40:08.255Z,10.06
2018-04-30T20:42:36.547Z,10.13
2018-04-30T20:45:06.149Z,10.07
2018-04-30T20:47:34.580Z,10.10
2018-04-30T20:50:05.800Z,10.10
2018-04-30T20:52:34.106Z,10.00
2018-04-30T20:55:05.665Z,9.98
2018-04-30T20:57:33.944Z,9.90
2018-04-30T21:00:05.291Z,10.08
2018-04-30T21:02:33.549Z,9.87
2018-04-30T21:05:04.933Z,9.81
2018-04-30T21:07:33.204Z,9.80
2018-04-30T21:10:07.792Z,9.78
2018-04-30T21:12:36.078Z,9.66
2018-04-30T21:15:05.665Z,9.78
2018-04-30T21:17:33.998Z,9.73
2018-04-30T21:20:05.375Z,9.62
2018-04-30T21:22:33.871Z,9.67
2018-04-30T21:25:06.519Z,9.74
2018-04-30T21:27:34.807Z,9.65
2018-04-30T21:30:06.481Z,9.62
2018-04-30T21:32:34.757Z,9.65
2018-04-30T21:35:05.686Z,9.64
2018-04-30T21:37:33.952Z,9.60
2018-04-30T21:40:08.098Z,9.70
2018-04-30T21:42:36.347Z,9.60
2018-04-30T21:45:06.113Z,9.63
2018-04-30T21:47:34.408Z,9.52
2018-04-30T21:50:06.496Z,9.45
2018-04-30T21:52:34.755Z,9.44
2018-04-30T21:55:07.380Z,9.47
2018-04-30T21:57:35.739Z,9.45
2018-04-30T22:00:07.335Z,9.49
2018-04-30T22:02:35.591Z,9.38
2018-04-30T22:05:07.940Z,9.46
2018-04-30T22:07:36.427Z,9.41
2018-04-30T22:10:06.445Z,9.33
2018-04-30T22:12:35.033Z,9.40
2018-04-30T22:15:07.026Z,9.46
2018-04-30T22:17:36.159Z,9.37
2018-04-30T22:20:06.174Z,9.20
2018-04-30T22:22:34.441Z,9.20
2018-04-30T22:25:08.394Z,9.14
2018-04-30T22:27:36.860Z,9.16
2018-04-30T22:30:06.272Z,9.03
2018-04-30T22:32:34.538Z,9.02
2018-04-30T22:35:08.552Z,9.19
2018-04-30T22:37:36.799Z,9.03
2018-04-30T22:40:06.411Z,9.06
2018-04-30T22:42:34.808Z,9.01
2018-04-30T22:45:06.805Z,8.89
2018-04-30T22:47:35.079Z,8.94
2018-04-30T22:50:06.983Z,8.91
2018-04-30T22:52:35.268Z,8.82
2018-04-30T22:55:07.386Z,8.83
2018-04-30T22:57:35.958Z,8.85
2018-04-30T23:00:05.976Z,8.98
2018-04-30T23:02:34.216Z,8.93
2018-04-30T23:05:05.491Z,8.96
2018-04-30T23:07:33.777Z,8.85
2018-04-30T23:10:08.522Z,8.78
2018-04-30T23:12:36.786Z,8.89
2018-04-30T23:15:06.513Z,8.74
2018-04-30T23:17:34.947Z,8.82
2018-04-30T23:20:06.825Z,8.90
2018-04-30T23:22:37.974Z,8.85
2018-04-30T23:25:06.254Z,8.73
2018-04-30T23:27:34.524Z,8.73
2018-04-30T23:30:06.456Z,8.78
2018-04-30T23:32:34.750Z,9.03
2018-04-30T23:35:06.401Z,8.90
2018-04-30T23:37:34.623Z,9.02
2018-04-30T23:40:06.657Z,8.86
2018-04-30T23:42:35.203Z,9.00
2018-04-30T23:45:07.110Z,8.91
2018-04-30T23:47:35.649Z,9.07
2018-04-30T23:50:07.720Z,9.04
2018-04-30T23:52:35.972Z,8.90
2018-04-30T23:55:06.103Z,8.90
2018-04-30T23:57:34.367Z,8.86
